Time,TemperatureF,DewpointF,PressureIn,WindDirection,WindDirectionDegrees,WindSpeedMPH,WindSpeedGustMPH,Humidity,HourlyPrecipIn,Conditions,Clouds,dailyrainin,SoftwareType,DateUTC
2013-03-12 00:03:00,24.4,19.4,29.86,NW,314,2.0,11.0,81,0.00,,,0.00,Wunderground v.1.15,2013-03-12 05:03:00,
2013-03-12 00:09:00,24.3,19.3,29.86,NW,311,2.0,11.0,81,0.00,,,0.00,Wunderground v.1.15,2013-03-12 05:09:00,
2013-03-12 00:15:00,24.2,19.5,29.86,NW,307,2.0,11.0,82,0.00,,,0.00,Wunderground v.1.15,2013-03-12 05:15:00,
2013-03-12 00:21:00,24.2,19.5,29.86,WNW,286,2.0,11.0,82,0.00,,,0.00,Wunderground v.1.15,2013-03-12 05:21:00,
2013-03-12 00:27:00,24.2,19.5,29.86,West,280,2.0,11.0,82,0.00,,,0.00,Wunderground v.1.15,2013-03-12 05:27:00,
2013-03-12 00:33:00,24.0,19.3,29.86,West,263,2.0,11.0,82,0.00,,,0.00,Wunderground v.1.15,2013-03-12 05:33:00,
2013-03-12 00:39:00,23.8,19.4,29.86,WNW,300,1.0,1.0,83,0.00,,,0.00,Wunderground v.1.15,2013-03-12 05:39:00,
2013-03-12 00:45:00,23.6,19.2,29.86,West,264,1.0,11.0,83,0.00,,,0.00,Wunderground v.1.15,2013-03-12 05:45:00,
2013-03-12 00:51:00,23.6,19.5,29.86,WSW,252,1.0,11.0,84,0.00,,,0.00,Wunderground v.1.15,2013-03-12 05:51:00,
2013-03-12 00:57:00,23.6,19.5,29.86,WNW,296,2.0,11.0,84,0.00,,,0.00,Wunderground v.1.15,2013-03-12 05:57:00,
2013-03-12 01:03:00,23.7,19.6,29.86,NW,305,2.0,11.0,84,0.00,,,0.00,Wunderground v.1.15,2013-03-12 06:03:00,
2013-03-12 01:09:00,23.8,19.7,29.86,West,274,1.0,11.0,84,0.00,,,0.00,Wunderground v.1.15,2013-03-12 06:09:00,
2013-03-12 01:15:00,23.9,20.0,29.86,WNW,288,2.0,11.0,85,0.00,,,0.00,Wunderground v.1.15,2013-03-12 06:15:00,
2013-03-12 01:21:00,24.0,19.9,29.86,WSW,257,2.0,11.0,84,0.00,,,0.00,Wunderground v.1.15,2013-03-12 06:21:00,
2013-03-12 01:27:00,24.1,20.2,29.86,WSW,252,2.0,11.0,85,0.00,,,0.00,Wunderground v.1.15,2013-03-12 06:27:00,
2013-03-12 01:33:00,24.2,20.3,29.86,WNW,290,2.0,11.0,85,0.00,,,0.00,Wunderground v.1.15,2013-03-12 06:33:00,
2013-03-12 01:39:00,24.4,20.5,29.87,WNW,297,2.0,11.0,85,0.00,,,0.00,Wunderground v.1.15,2013-03-12 06:39:00,
2013-03-12 01:45:00,24.5,20.6,29.87,West,262,2.0,11.0,85,0.00,,,0.00,Wunderground v.1.15,2013-03-12 06:45:00,
2013-03-12 01:51:00,24.6,20.7,29.86,West,260,2.0,3.0,85,0.00,,,0.00,Wunderground v.1.15,2013-03-12 06:51:00,
2013-03-12 01:57:00,24.8,20.9,29.86,NW,319,2.0,11.0,85,0.00,,,0.00,Wunderground v.1.15,2013-03-12 06:57:00,
2013-03-12 02:03:00,24.8,20.9,29.86,WNW,293,2.0,11.0,85,0.00,,,0.00,Wunderground v.1.15,2013-03-12 07:03:00,
2013-03-12 02:09:00,24.8,20.9,29.87,WNW,283,1.0,1.0,85,0.00,,,0.00,Wunderground v.1.15,2013-03-12 07:09:00,
2013-03-12 02:15:00,24.6,20.7,29.87,WNW,289,1.0,11.0,85,0.00,,,0.00,Wunderground v.1.15,2013-03-12 07:15:00,
2013-03-12 02:21:00,24.4,20.8,29.87,West,280,1.0,11.0,86,0.00,,,0.00,Wunderground v.1.15,2013-03-12 07:21:00,
2013-03-12 02:27:00,24.1,20.5,29.87,West,268,1.0,11.0,86,0.00,,,0.00,Wunderground v.1.15,2013-03-12 07:27:00,
2013-03-12 02:33:00,23.9,20.6,29.87,West,277,1.0,11.0,87,0.00,,,0.00,Wunderground v.1.15,2013-03-12 07:33:00,
2013-03-12 02:39:00,23.8,20.5,29.87,WNW,287,1.0,11.0,87,0.00,,,0.00,Wunderground v.1.15,2013-03-12 07:39:00,
2013-03-12 02:45:00,23.6,20.6,29.87,WNW,287,1.0,11.0,88,0.00,,,0.00,Wunderground v.1.15,2013-03-12 07:45:00,
2013-03-12 02:51:00,23.4,20.4,29.87,West,273,0.0,11.0,88,0.00,,,0.00,Wunderground v.1.15,2013-03-12 07:51:00,
2013-03-12 02:57:00,23.3,20.3,29.88,West,277,1.0,11.0,88,0.00,,,0.00,Wunderground v.1.15,2013-03-12 07:57:00,
2013-03-12 03:03:00,23.2,20.2,29.88,WNW,287,1.0,11.0,88,0.00,,,0.00,Wunderground v.1.15,2013-03-12 08:03:00,
2013-03-12 03:09:00,22.9,19.9,29.88,West,276,1.0,1.0,88,0.00,,,0.00,Wunderground v.1.15,2013-03-12 08:09:00,
2013-03-12 03:15:00,22.8,20.0,29.88,WNW,295,0.0,11.0,89,0.00,,,0.00,Wunderground v.1.15,2013-03-12 08:15:00,
2013-03-12 03:21:00,22.6,19.8,29.88,West,262,1.0,11.0,89,0.00,,,0.00,Wunderground v.1.15,2013-03-12 08:21:00,
2013-03-12 03:27:00,22.7,20.2,29.87,NW,304,1.0,11.0,90,0.00,,,0.00,Wunderground v.1.15,2013-03-12 08:27:00,
2013-03-12 03:33:00,22.7,20.2,29.87,West,274,1.0,11.0,90,0.00,,,0.00,Wunderground v.1.15,2013-03-12 08:33:00,
2013-03-12 03:39:00,22.6,20.1,29.87,WNW,284,1.0,11.0,90,0.00,,,0.00,Wunderground v.1.15,2013-03-12 08:39:00,
2013-03-12 03:45:00,22.6,20.1,29.87,WNW,283,1.0,11.0,90,0.00,,,0.00,Wunderground v.1.15,2013-03-12 08:45:00,
2013-03-12 03:51:00,22.5,20.0,29.87,West,274,1.0,11.0,90,0.00,,,0.00,Wunderground v.1.15,2013-03-12 08:51:00,
2013-03-12 03:57:00,22.4,19.9,29.87,WSW,255,1.0,11.0,90,0.00,,,0.00,Wunderground v.1.15,2013-03-12 08:57:00,
2013-03-12 04:03:00,22.4,19.9,29.87,NW,305,2.0,11.0,90,0.00,,,0.00,Wunderground v.1.15,2013-03-12 09:03:00,
2013-03-12 04:09:00,22.5,19.7,29.87,WNW,300,2.0,11.0,89,0.00,,,0.00,Wunderground v.1.15,2013-03-12 09:09:00,
2013-03-12 04:15:00,22.5,19.5,29.87,WNW,300,1.0,11.0,88,0.00,,,0.00,Wunderground v.1.15,2013-03-12 09:15:00,
2013-03-12 04:21:00,22.5,19.5,29.87,NW,314,2.0,11.0,88,0.00,,,0.00,Wunderground v.1.15,2013-03-12 09:21:00,
2013-03-12 04:27:00,22.4,19.4,29.87,NW,311,2.0,11.0,88,0.00,,,0.00,Wunderground v.1.15,2013-03-12 09:27:00,
2013-03-12 04:33:00,22.4,19.4,29.87,NNW,328,1.0,11.0,88,0.00,,,0.00,Wunderground v.1.15,2013-03-12 09:33:00,
2013-03-12 04:39:00,22.3,19.3,29.87,NW,312,1.0,1.0,88,0.00,,,0.00,Wunderground v.1.15,2013-03-12 09:39:00,
2013-03-12 04:45:00,22.4,19.4,29.87,WNW,297,1.0,11.0,88,0.00,,,0.00,Wunderground v.1.15,2013-03-12 09:45:00,
2013-03-12 04:51:00,22.6,19.3,29.87,West,269,1.0,11.0,87,0.00,,,0.00,Wunderground v.1.15,2013-03-12 09:51:00,
2013-03-12 04:57:00,22.5,19.2,29.87,West,271,1.0,11.0,87,0.00,,,0.00,Wunderground v.1.15,2013-03-12 09:57:00,
2013-03-12 05:03:00,22.4,19.1,29.87,WSW,252,1.0,11.0,87,0.00,,,0.00,Wunderground v.1.15,2013-03-12 10:03:00,
2013-03-12 05:09:00,22.3,19.3,29.88,WSW,253,1.0,11.0,88,0.00,,,0.00,Wunderground v.1.15,2013-03-12 10:09:00,
2013-03-12 05:15:00,22.4,19.4,29.87,WSW,252,1.0,11.0,88,0.00,,,0.00,Wunderground v.1.15,2013-03-12 10:15:00,
2013-03-12 05:21:00,22.6,19.6,29.88,WNW,291,1.0,3.0,88,0.00,,,0.00,Wunderground v.1.15,2013-03-12 10:21:00,
2013-03-12 05:27:00,22.9,19.9,29.88,WNW,295,2.0,11.0,88,0.00,,,0.00,Wunderground v.1.15,2013-03-12 10:27:00,
2013-03-12 05:33:00,23.2,20.2,29.87,West,278,1.0,11.0,88,0.00,,,0.00,Wunderground v.1.15,2013-03-12 10:33:00,
2013-03-12 05:39:00,23.3,20.0,29.87,West,280,1.0,11.0,87,0.00,,,0.00,Wunderground v.1.15,2013-03-12 10:39:00,
2013-03-12 05:45:00,23.3,20.3,29.87,West,274,1.0,11.0,88,0.00,,,0.00,Wunderground v.1.15,2013-03-12 10:45:00,
2013-03-12 05:51:00,23.4,20.4,29.87,West,263,1.0,11.0,88,0.00,,,0.00,Wunderground v.1.15,2013-03-12 10:51:00,
2013-03-12 05:57:00,23.4,20.4,29.87,WSW,253,1.0,11.0,88,0.00,,,0.00,Wunderground v.1.15,2013-03-12 10:57:00,
2013-03-12 06:03:00,23.3,20.3,29.88,West,261,2.0,11.0,88,0.00,,,0.00,Wunderground v.1.15,2013-03-12 11:03:00,
2013-03-12 06:09:00,23.0,20.0,29.88,West,260,1.0,11.0,88,0.00,,,0.00,Wunderground v.1.15,2013-03-12 11:09:00,
2013-03-12 06:15:00,23.0,20.0,29.89,NW,314,1.0,11.0,88,0.00,,,0.00,Wunderground v.1.15,2013-03-12 11:15:00,
2013-03-12 06:21:00,23.0,20.2,29.89,WNW,293,1.0,11.0,89,0.00,,,0.00,Wunderground v.1.15,2013-03-12 11:21:00,
2013-03-12 06:27:00,23.1,20.3,29.89,WNW,289,2.0,11.0,89,0.00,,,0.00,Wunderground v.1.15,2013-03-12 11:27:00,
2013-03-12 06:33:00,23.4,20.4,29.89,WSW,255,2.0,11.0,88,0.00,,,0.00,Wunderground v.1.15,2013-03-12 11:33:00,
2013-03-12 06:39:00,23.6,20.6,29.90,WNW,295,2.0,11.0,88,0.00,,,0.00,Wunderground v.1.15,2013-03-12 11:39:00,
2013-03-12 06:45:00,23.8,20.8,29.89,WSW,257,3.0,11.0,88,0.00,,,0.00,Wunderground v.1.15,2013-03-12 11:45:00,
2013-03-12 06:51:00,23.9,20.9,29.89,WSW,245,2.0,11.0,88,0.00,,,0.00,Wunderground v.1.15,2013-03-12 11:51:00,
2013-03-12 06:57:00,23.9,20.9,29.89,West,267,3.0,11.0,88,0.00,,,0.00,Wunderground v.1.15,2013-03-12 11:57:00,
2013-03-12 07:03:00,23.7,20.4,29.89,NW,326,2.0,11.0,87,0.00,,,0.00,Wunderground v.1.15,2013-03-12 12:03:00,
2013-03-12 07:09:00,23.7,20.7,29.89,WNW,300,3.0,11.0,88,0.00,,,0.00,Wunderground v.1.15,2013-03-12 12:09:00,
2013-03-12 07:15:00,23.7,20.7,29.89,WNW,286,3.0,11.0,88,0.00,,,0.00,Wunderground v.1.15,2013-03-12 12:15:00,
2013-03-12 07:21:00,23.7,20.7,29.90,WSW,245,3.0,11.0,88,0.00,,,0.00,Wunderground v.1.15,2013-03-12 12:21:00,
2013-03-12 07:27:00,23.8,20.5,29.90,WNW,293,3.0,11.0,87,0.00,,,0.00,Wunderground v.1.15,2013-03-12 12:27:00,
2013-03-12 07:33:00,23.8,20.5,29.90,WNW,283,3.0,11.0,87,0.00,,,0.00,Wunderground v.1.15,2013-03-12 12:33:00,
2013-03-12 07:39:00,23.8,20.5,29.90,West,270,3.0,11.0,87,0.00,,,0.00,Wunderground v.1.15,2013-03-12 12:39:00,
2013-03-12 07:45:00,23.7,20.4,29.90,West,264,4.0,11.0,87,0.00,,,0.00,Wunderground v.1.15,2013-03-12 12:45:00,
2013-03-12 07:51:00,23.7,20.4,29.90,WSW,257,3.0,7.0,87,0.00,,,0.00,Wunderground v.1.15,2013-03-12 12:51:00,
2013-03-12 07:57:00,23.8,20.5,29.90,WNW,295,4.0,11.0,87,0.00,,,0.00,Wunderground v.1.15,2013-03-12 12:57:00,
2013-03-12 08:03:00,23.9,20.6,29.90,NW,304,3.0,11.0,87,0.00,,,0.00,Wunderground v.1.15,2013-03-12 13:03:00,
2013-03-12 08:09:00,24.2,20.9,29.89,WNW,290,3.0,11.0,87,0.00,,,0.00,Wunderground v.1.15,2013-03-12 13:09:00,
2013-03-12 08:15:00,24.3,21.0,29.89,WNW,298,3.0,11.0,87,0.00,,,0.00,Wunderground v.1.15,2013-03-12 13:15:00,
2013-03-12 08:21:00,24.6,21.3,29.89,NW,307,3.0,11.0,87,0.00,,,0.00,Wunderground v.1.15,2013-03-12 13:21:00,
2013-03-12 08:27:00,25.0,21.7,29.89,WNW,302,3.0,11.0,87,0.00,,,0.00,Wunderground v.1.15,2013-03-12 13:27:00,
2013-03-12 08:33:00,25.2,21.6,29.90,NW,304,3.0,11.0,86,0.00,,,0.00,Wunderground v.1.15,2013-03-12 13:33:00,
2013-03-12 08:39:00,25.6,22.0,29.90,WNW,287,4.0,11.0,86,0.00,,,0.00,Wunderground v.1.15,2013-03-12 13:39:00,
2013-03-12 08:45:00,25.9,22.3,29.90,WSW,253,4.0,11.0,86,0.00,,,0.00,Wunderground v.1.15,2013-03-12 13:45:00,
2013-03-12 08:51:00,26.0,22.1,29.90,WNW,294,5.0,8.0,85,0.00,,,0.00,Wunderground v.1.15,2013-03-12 13:51:00,
2013-03-12 08:59:00,26.1,22.2,29.90,SW,229,4.0,11.0,85,0.00,,,0.00,Wunderground v.1.15,2013-03-12 13:59:00,
2013-03-12 09:05:00,26.1,21.9,29.90,West,264,5.0,11.0,84,0.00,,,0.00,Wunderground v.1.15,2013-03-12 14:05:00,
2013-03-12 09:11:00,26.0,21.8,29.90,WSW,245,6.0,11.0,84,0.00,,,0.00,Wunderground v.1.15,2013-03-12 14:11:00,
2013-03-12 09:17:00,26.4,22.2,29.90,WSW,245,5.0,11.0,84,0.00,,,0.00,Wunderground v.1.15,2013-03-12 14:17:00,
2013-03-12 09:23:00,26.9,22.7,29.90,West,266,5.0,11.0,84,0.00,,,0.00,Wunderground v.1.15,2013-03-12 14:23:00,
2013-03-12 09:29:00,27.2,22.7,29.90,WNW,298,4.0,11.0,83,0.00,,,0.00,Wunderground v.1.15,2013-03-12 14:29:00,
2013-03-12 09:35:00,27.0,22.5,29.90,WNW,293,5.0,11.0,83,0.00,,,0.00,Wunderground v.1.15,2013-03-12 14:35:00,
2013-03-12 09:43:00,27.1,22.9,29.91,WNW,285,5.0,11.0,84,0.00,,,0.00,Wunderground v.1.15,2013-03-12 14:43:00,
2013-03-12 09:49:00,27.4,23.2,29.91,WNW,285,4.0,4.0,84,0.00,,,0.00,Wunderground v.1.15,2013-03-12 14:49:00,
2013-03-12 09:55:00,27.5,23.6,29.91,WNW,297,4.0,11.0,85,0.00,,,0.00,Wunderground v.1.15,2013-03-12 14:55:00,
2013-03-12 10:01:00,27.6,23.7,29.91,WNW,284,4.0,11.0,85,0.00,,,0.00,Wunderground v.1.15,2013-03-12 15:01:00,
2013-03-12 10:07:00,27.8,24.2,29.91,WNW,293,4.0,11.0,86,0.00,,,0.00,Wunderground v.1.15,2013-03-12 15:07:00,
2013-03-12 10:13:00,28.0,24.6,29.91,West,276,4.0,11.0,87,0.00,,,0.00,Wunderground v.1.15,2013-03-12 15:13:00,
2013-03-12 10:19:00,28.1,24.7,29.91,WSW,248,5.0,11.0,87,0.00,,,0.00,Wunderground v.1.15,2013-03-12 15:19:00,
2013-03-12 10:25:00,28.3,24.9,29.91,NNW,339,6.0,11.0,87,0.00,,,0.00,Wunderground v.1.15,2013-03-12 15:25:00,
2013-03-12 10:31:00,28.6,25.2,29.91,WNW,283,5.0,7.0,87,0.00,,,0.00,Wunderground v.1.15,2013-03-12 15:31:00,
2013-03-12 10:37:00,28.9,25.2,29.91,NW,309,5.0,11.0,86,0.00,,,0.00,Wunderground v.1.15,2013-03-12 15:37:00,
2013-03-12 10:43:00,29.2,25.5,29.91,NNW,336,5.0,11.0,86,0.00,,,0.00,Wunderground v.1.15,2013-03-12 15:43:00,
2013-03-12 10:49:00,29.7,26.0,29.92,WNW,300,5.0,5.0,86,0.00,,,0.00,Wunderground v.1.15,2013-03-12 15:49:00,
2013-03-12 10:55:00,30.4,26.7,29.92,WNW,286,5.0,11.0,86,0.00,,,0.00,Wunderground v.1.15,2013-03-12 15:55:00,
2013-03-12 11:01:00,30.9,26.9,29.92,WNW,290,5.0,11.0,85,0.00,,,0.00,Wunderground v.1.15,2013-03-12 16:01:00,
2013-03-12 11:07:00,31.2,27.2,29.92,WNW,297,5.0,11.0,85,0.00,,,0.00,Wunderground v.1.15,2013-03-12 16:07:00,
2013-03-12 11:13:00,31.6,27.6,29.92,WSW,250,4.0,11.0,85,0.00,,,0.00,Wunderground v.1.15,2013-03-12 16:13:00,
2013-03-12 11:19:00,31.7,27.7,29.91,NNW,334,4.0,4.0,85,0.00,,,0.00,Wunderground v.1.15,2013-03-12 16:19:00,
2013-03-12 11:25:00,31.4,27.7,29.92,NNW,329,5.0,11.0,86,0.00,,,0.00,Wunderground v.1.15,2013-03-12 16:25:00,
2013-03-12 11:31:00,31.6,28.2,29.92,NW,309,5.0,11.0,87,0.00,,,0.00,Wunderground v.1.15,2013-03-12 16:31:00,
2013-03-12 11:37:00,31.5,28.1,29.92,WNW,287,5.0,11.0,87,0.00,,,0.00,Wunderground v.1.15,2013-03-12 16:37:00,
2013-03-12 11:43:00,31.4,28.3,29.92,NW,309,6.0,11.0,88,0.00,,,0.00,Wunderground v.1.15,2013-03-12 16:43:00,
2013-03-12 11:49:00,31.6,28.5,29.92,West,281,6.0,11.0,88,0.00,,,0.00,Wunderground v.1.15,2013-03-12 16:49:00,
2013-03-12 11:55:00,31.6,28.2,29.92,NW,315,6.0,11.0,87,0.00,,,0.00,Wunderground v.1.15,2013-03-12 16:55:00,
2013-03-12 12:01:00,31.6,28.5,29.92,NW,307,7.0,11.0,88,0.00,,,0.01,Wunderground v.1.15,2013-03-12 17:01:00,
2013-03-12 12:07:00,31.7,28.8,29.92,West,276,6.0,11.0,89,0.00,,,0.01,Wunderground v.1.15,2013-03-12 17:07:00,
2013-03-12 12:13:00,32.2,29.6,29.92,NW,316,5.0,11.0,90,0.00,,,0.01,Wunderground v.1.15,2013-03-12 17:13:00,
2013-03-12 12:19:00,31.8,28.7,29.92,NNW,329,5.0,11.0,88,0.00,,,0.01,Wunderground v.1.15,2013-03-12 17:19:00,
2013-03-12 12:25:00,31.5,28.6,29.93,WNW,283,6.0,11.0,89,0.00,,,0.01,Wunderground v.1.15,2013-03-12 17:25:00,
2013-03-12 12:31:00,31.7,28.0,29.93,WNW,295,6.0,11.0,86,0.00,,,0.02,Wunderground v.1.15,2013-03-12 17:31:00,
2013-03-12 12:37:00,31.9,27.3,29.93,West,274,6.0,11.0,83,0.00,,,0.02,Wunderground v.1.15,2013-03-12 17:37:00,
2013-03-12 12:43:00,31.9,26.4,29.93,WNW,300,6.0,11.0,80,0.00,,,0.02,Wunderground v.1.15,2013-03-12 17:43:00,
2013-03-12 12:49:00,31.7,26.5,29.93,WSW,245,6.0,6.0,81,0.00,,,0.02,Wunderground v.1.15,2013-03-12 17:49:00,
2013-03-12 12:55:00,31.4,26.2,29.93,NW,305,6.0,11.0,81,0.00,,,0.02,Wunderground v.1.15,2013-03-12 17:55:00,
2013-03-12 13:01:00,31.4,25.9,29.93,NW,315,6.0,9.0,80,0.00,,,0.02,Wunderground v.1.15,2013-03-12 18:01:00,
2013-03-12 13:07:00,31.4,25.3,29.94,NW,322,7.0,11.0,78,0.00,,,0.02,Wunderground v.1.15,2013-03-12 18:07:00,
2013-03-12 13:13:00,31.1,25.7,29.94,NNW,336,6.0,11.0,80,0.00,,,0.02,Wunderground v.1.15,2013-03-12 18:13:00,
2013-03-12 13:19:00,30.6,25.2,29.95,WNW,293,6.0,11.0,80,0.00,,,0.02,Wunderground v.1.15,2013-03-12 18:19:00,
2013-03-12 13:25:00,30.5,23.8,29.95,North,351,7.0,12.0,76,0.00,,,0.02,Wunderground v.1.15,2013-03-12 18:25:00,
2013-03-12 13:31:00,30.7,24.0,29.95,WSW,245,8.0,9.0,76,0.00,,,0.02,Wunderground v.1.15,2013-03-12 18:31:00,
2013-03-12 13:37:00,31.3,24.3,29.95,NW,307,6.0,11.0,75,0.00,,,0.02,Wunderground v.1.15,2013-03-12 18:37:00,
2013-03-12 13:43:00,30.8,23.8,29.95,NNW,328,6.0,11.0,75,0.00,,,0.02,Wunderground v.1.15,2013-03-12 18:43:00,
2013-03-12 13:49:00,30.1,23.4,29.96,WSW,250,6.0,6.0,76,0.00,,,0.02,Wunderground v.1.15,2013-03-12 18:49:00,
2013-03-12 13:55:00,29.8,23.8,29.96,West,276,6.0,11.0,78,0.00,,,0.02,Wunderground v.1.15,2013-03-12 18:55:00,
2013-03-12 14:01:00,29.0,21.7,29.96,West,280,7.0,11.0,74,0.00,,,0.02,Wunderground v.1.15,2013-03-12 19:01:00,
2013-03-12 14:07:00,28.9,21.7,29.96,NNW,340,7.0,11.0,74,0.00,,,0.02,Wunderground v.1.15,2013-03-12 19:07:00,
2013-03-12 14:13:00,29.5,21.6,29.96,WNW,287,6.0,11.0,72,0.00,,,0.02,Wunderground v.1.15,2013-03-12 19:13:00,
2013-03-12 14:19:00,29.7,22.1,29.96,WNW,297,7.0,11.0,73,0.00,,,0.02,Wunderground v.1.15,2013-03-12 19:19:00,
2013-03-12 14:25:00,29.0,21.1,29.97,NW,304,7.0,11.0,72,0.00,,,0.02,Wunderground v.1.15,2013-03-12 19:25:00,
2013-03-12 14:31:00,28.6,21.0,29.97,WNW,300,8.0,8.0,73,0.00,,,0.02,Wunderground v.1.15,2013-03-12 19:31:00,
2013-03-12 14:37:00,29.4,21.2,29.97,WNW,295,6.0,11.0,71,0.00,,,0.02,Wunderground v.1.15,2013-03-12 19:37:00,
2013-03-12 14:43:00,29.5,19.9,29.97,NW,315,6.0,12.0,67,0.00,,,0.02,Wunderground v.1.15,2013-03-12 19:43:00,
2013-03-12 14:49:00,29.2,20.3,29.97,NW,316,8.0,11.0,69,0.00,,,0.02,Wunderground v.1.15,2013-03-12 19:49:00,
2013-03-12 14:55:00,29.4,20.1,29.97,NW,314,7.0,11.0,68,0.00,,,0.03,Wunderground v.1.15,2013-03-12 19:55:00,
2013-03-12 15:01:00,28.8,19.6,29.98,NNW,329,7.0,7.0,68,0.00,,,0.03,Wunderground v.1.15,2013-03-12 20:01:00,
2013-03-12 15:07:00,28.7,20.5,29.98,WNW,302,7.0,11.0,71,0.00,,,0.03,Wunderground v.1.15,2013-03-12 20:07:00,
2013-03-12 15:13:00,28.2,19.3,29.98,NW,311,7.0,11.0,69,0.00,,,0.03,Wunderground v.1.15,2013-03-12 20:13:00,
2013-03-12 15:19:00,28.3,19.8,29.98,NW,318,7.0,11.0,70,0.00,,,0.03,Wunderground v.1.15,2013-03-12 20:19:00,
2013-03-12 15:25:00,28.3,19.1,29.98,WNW,298,7.0,11.0,68,0.00,,,0.03,Wunderground v.1.15,2013-03-12 20:25:00,
2013-03-12 15:31:00,28.9,19.3,29.98,North,359,7.0,8.0,67,0.00,,,0.03,Wunderground v.1.15,2013-03-12 20:31:00,
2013-03-12 15:37:00,28.7,19.1,29.98,NW,311,7.0,11.0,67,0.00,,,0.03,Wunderground v.1.15,2013-03-12 20:37:00,
2013-03-12 15:43:00,29.1,19.8,29.99,NW,314,7.0,11.0,68,0.00,,,0.03,Wunderground v.1.15,2013-03-12 20:43:00,
2013-03-12 15:49:00,28.9,19.7,29.99,WNW,295,7.0,11.0,68,0.00,,,0.03,Wunderground v.1.15,2013-03-12 20:49:00,
2013-03-12 15:55:00,28.4,19.9,29.99,West,270,7.0,15.0,70,0.00,,,0.03,Wunderground v.1.15,2013-03-12 20:55:00,
2013-03-12 16:01:00,27.9,19.7,29.99,West,279,7.0,11.0,71,0.00,,,0.03,Wunderground v.1.15,2013-03-12 21:01:00,
2013-03-12 16:07:00,27.2,20.0,30.00,WNW,301,8.0,11.0,74,0.00,,,0.03,Wunderground v.1.15,2013-03-12 21:07:00,
2013-03-12 16:13:00,26.9,20.0,30.00,NW,326,8.0,11.0,75,0.00,,,0.03,Wunderground v.1.15,2013-03-12 21:13:00,
2013-03-12 16:19:00,27.0,21.1,30.00,NW,307,7.0,7.0,78,0.00,,,0.03,Wunderground v.1.15,2013-03-12 21:19:00,
2013-03-12 16:25:00,27.1,20.2,30.00,WNW,293,6.0,11.0,75,0.00,,,0.03,Wunderground v.1.15,2013-03-12 21:25:00,
2013-03-12 16:33:00,27.2,19.7,30.00,NW,318,7.0,11.0,73,0.00,,,0.03,Wunderground v.1.15,2013-03-12 21:33:00,
2013-03-12 16:39:00,26.9,19.7,30.00,NW,314,7.0,7.0,74,0.00,,,0.03,Wunderground v.1.15,2013-03-12 21:39:00,
2013-03-12 16:45:00,26.6,20.1,30.01,WNW,293,6.0,11.0,76,0.00,,,0.03,Wunderground v.1.15,2013-03-12 21:45:00,
2013-03-12 16:51:00,25.9,20.6,30.01,WNW,293,7.0,11.0,80,0.00,,,0.03,Wunderground v.1.15,2013-03-12 21:51:00,
2013-03-12 16:57:00,25.8,21.1,30.01,NNW,342,7.0,11.0,82,0.00,,,0.03,Wunderground v.1.15,2013-03-12 21:57:00,
2013-03-12 17:03:00,26.2,20.6,30.01,NW,315,6.0,11.0,79,0.00,,,0.03,Wunderground v.1.15,2013-03-12 22:03:00,
2013-03-12 17:09:00,26.5,20.6,30.01,NNW,329,6.0,11.0,78,0.00,,,0.03,Wunderground v.1.15,2013-03-12 22:09:00,
2013-03-12 17:15:00,26.5,19.6,30.02,NW,307,6.0,11.0,75,0.00,,,0.03,Wunderground v.1.15,2013-03-12 22:15:00,
2013-03-12 17:21:00,26.1,19.9,30.02,WNW,293,7.0,11.0,77,0.00,,,0.03,Wunderground v.1.15,2013-03-12 22:21:00,
2013-03-12 17:27:00,26.1,20.8,30.02,NW,314,5.0,11.0,80,0.00,,,0.03,Wunderground v.1.15,2013-03-12 22:27:00,
2013-03-12 17:33:00,25.9,20.6,30.03,WNW,289,4.0,11.0,80,0.00,,,0.03,Wunderground v.1.15,2013-03-12 22:33:00,
2013-03-12 17:39:00,25.8,20.2,30.03,NW,321,5.0,11.0,79,0.00,,,0.03,Wunderground v.1.15,2013-03-12 22:39:00,
2013-03-12 17:45:00,25.7,20.1,30.03,West,272,7.0,11.0,79,0.00,,,0.03,Wunderground v.1.15,2013-03-12 22:45:00,
2013-03-12 17:51:00,25.7,20.1,30.03,WNW,293,7.0,11.0,79,0.00,,,0.03,Wunderground v.1.15,2013-03-12 22:51:00,
2013-03-12 17:57:00,25.6,19.4,30.03,WNW,298,7.0,11.0,77,0.00,,,0.03,Wunderground v.1.15,2013-03-12 22:57:00,
2013-03-12 18:03:00,25.6,19.1,30.03,NW,308,7.0,11.0,76,0.00,,,0.03,Wunderground v.1.15,2013-03-12 23:03:00,
2013-03-12 18:09:00,25.7,19.5,30.04,NNW,338,6.0,6.0,77,0.00,,,0.03,Wunderground v.1.15,2013-03-12 23:09:00,
2013-03-12 18:15:00,25.6,19.7,30.04,NW,311,5.0,11.0,78,0.00,,,0.03,Wunderground v.1.15,2013-03-12 23:15:00,
2013-03-12 18:21:00,25.4,20.1,30.04,NW,307,7.0,13.0,80,0.00,,,0.03,Wunderground v.1.15,2013-03-12 23:21:00,
2013-03-12 18:27:00,25.2,20.2,30.04,NW,311,7.0,13.0,81,0.00,,,0.03,Wunderground v.1.15,2013-03-12 23:27:00,
2013-03-12 18:33:00,25.2,20.2,30.04,NW,311,6.0,11.0,81,0.00,,,0.03,Wunderground v.1.15,2013-03-12 23:33:00,
2013-03-12 18:39:00,25.2,20.2,30.05,NW,314,5.0,5.0,81,0.00,,,0.03,Wunderground v.1.15,2013-03-12 23:39:00,
2013-03-12 18:45:00,25.3,19.7,30.05,NW,311,6.0,11.0,79,0.00,,,0.03,Wunderground v.1.15,2013-03-12 23:45:00,
2013-03-12 18:51:00,25.2,19.3,30.05,NW,305,6.0,11.0,78,0.00,,,0.03,Wunderground v.1.15,2013-03-12 23:51:00,
2013-03-12 18:57:00,25.2,19.3,30.05,NW,314,6.0,11.0,78,0.00,,,0.03,Wunderground v.1.15,2013-03-12 23:57:00,
2013-03-12 19:03:00,25.1,19.2,30.05,West,276,6.0,12.0,78,0.00,,,0.03,Wunderground v.1.15,2013-03-13 00:03:00,
2013-03-12 19:09:00,25.1,19.5,30.05,NW,316,7.0,11.0,79,0.00,,,0.03,Wunderground v.1.15,2013-03-13 00:09:00,
2013-03-12 19:15:00,25.0,19.7,30.05,NW,309,6.0,11.0,80,0.00,,,0.03,Wunderground v.1.15,2013-03-13 00:15:00,
2013-03-12 19:21:00,25.0,20.0,30.05,WNW,290,5.0,12.0,81,0.00,,,0.03,Wunderground v.1.15,2013-03-13 00:21:00,
2013-03-12 19:27:00,25.0,20.0,30.06,North,360,6.0,12.0,81,0.00,,,0.03,Wunderground v.1.15,2013-03-13 00:27:00,
2013-03-12 19:33:00,24.9,19.6,30.06,NW,326,6.0,11.0,80,0.00,,,0.03,Wunderground v.1.15,2013-03-13 00:33:00,
2013-03-12 19:39:00,24.7,19.4,30.06,West,281,7.0,11.0,80,0.00,,,0.03,Wunderground v.1.15,2013-03-13 00:39:00,
2013-03-12 19:45:00,24.6,19.6,30.07,WNW,293,6.0,11.0,81,0.00,,,0.03,Wunderground v.1.15,2013-03-13 00:45:00,
2013-03-12 19:51:00,24.6,19.0,30.07,NW,321,5.0,11.0,79,0.00,,,0.03,Wunderground v.1.15,2013-03-13 00:51:00,
2013-03-12 19:57:00,24.5,18.9,30.07,NW,314,5.0,11.0,79,0.00,,,0.03,Wunderground v.1.15,2013-03-13 00:57:00,
2013-03-12 20:03:00,24.5,18.9,30.07,West,277,5.0,11.0,79,0.00,,,0.03,Wunderground v.1.15,2013-03-13 01:03:00,
2013-03-12 20:09:00,24.5,18.9,30.07,NNW,341,5.0,11.0,79,0.00,,,0.03,Wunderground v.1.15,2013-03-13 01:09:00,
2013-03-12 20:15:00,24.4,18.8,30.07,NNW,328,5.0,11.0,79,0.00,,,0.03,Wunderground v.1.15,2013-03-13 01:15:00,
2013-03-12 20:21:00,24.4,18.8,30.07,WNW,301,5.0,11.0,79,0.00,,,0.03,Wunderground v.1.15,2013-03-13 01:21:00,
2013-03-12 20:27:00,24.3,18.7,30.08,West,266,6.0,11.0,79,0.00,,,0.03,Wunderground v.1.15,2013-03-13 01:27:00,
2013-03-12 20:33:00,24.2,18.9,30.08,WNW,297,5.0,11.0,80,0.00,,,0.03,Wunderground v.1.15,2013-03-13 01:33:00,
2013-03-12 20:39:00,24.1,18.8,30.08,NW,311,4.0,11.0,80,0.00,,,0.03,Wunderground v.1.15,2013-03-13 01:39:00,
2013-03-12 20:45:00,24.2,18.9,30.08,NNW,344,5.0,11.0,80,0.00,,,0.03,Wunderground v.1.15,2013-03-13 01:45:00,
2013-03-12 20:51:00,24.2,18.9,30.08,NW,307,7.0,11.0,80,0.00,,,0.03,Wunderground v.1.15,2013-03-13 01:51:00,
2013-03-12 20:57:00,24.1,19.4,30.09,NW,314,6.0,11.0,82,0.00,,,0.03,Wunderground v.1.15,2013-03-13 01:57:00,
2013-03-12 21:03:00,23.9,19.2,30.09,NW,314,5.0,11.0,82,0.00,,,0.03,Wunderground v.1.15,2013-03-13 02:03:00,
2013-03-12 21:09:00,23.7,19.0,30.09,NW,307,5.0,11.0,82,0.00,,,0.03,Wunderground v.1.15,2013-03-13 02:09:00,
2013-03-12 21:15:00,23.5,18.5,30.09,NW,305,4.0,11.0,81,0.00,,,0.03,Wunderground v.1.15,2013-03-13 02:15:00,
2013-03-12 21:21:00,23.4,18.4,30.10,NW,315,4.0,11.0,81,0.00,,,0.03,Wunderground v.1.15,2013-03-13 02:21:00,
2013-03-12 21:27:00,23.3,18.0,30.10,WNW,294,6.0,11.0,80,0.00,,,0.03,Wunderground v.1.15,2013-03-13 02:27:00,
2013-03-12 21:33:00,23.1,18.1,30.10,NNW,328,5.0,11.0,81,0.00,,,0.03,Wunderground v.1.15,2013-03-13 02:33:00,
2013-03-12 21:39:00,23.0,18.0,30.10,NW,316,4.0,11.0,81,0.00,,,0.03,Wunderground v.1.15,2013-03-13 02:39:00,
2013-03-12 21:45:00,22.9,17.7,30.10,WNW,284,5.0,11.0,80,0.00,,,0.03,Wunderground v.1.15,2013-03-13 02:45:00,
2013-03-12 21:51:00,22.8,17.8,30.10,WNW,300,6.0,11.0,81,0.00,,,0.03,Wunderground v.1.15,2013-03-13 02:51:00,
2013-03-12 21:57:00,22.5,17.5,30.11,WNW,289,5.0,11.0,81,0.00,,,0.03,Wunderground v.1.15,2013-03-13 02:57:00,
2013-03-12 22:03:00,22.4,17.7,30.11,SW,229,6.0,11.0,82,0.00,,,0.03,Wunderground v.1.15,2013-03-13 03:03:00,
2013-03-12 22:09:00,22.3,17.6,30.11,West,280,5.0,5.0,82,0.00,,,0.03,Wunderground v.1.15,2013-03-13 03:09:00,
2013-03-12 22:15:00,22.2,17.8,30.11,WNW,298,5.0,11.0,83,0.00,,,0.03,Wunderground v.1.15,2013-03-13 03:15:00,
2013-03-12 22:21:00,22.1,17.7,30.11,NW,315,5.0,11.0,83,0.00,,,0.03,Wunderground v.1.15,2013-03-13 03:21:00,
2013-03-12 22:27:00,22.1,17.7,30.12,NNW,346,5.0,11.0,83,0.00,,,0.03,Wunderground v.1.15,2013-03-13 03:27:00,
2013-03-12 22:33:00,22.1,17.4,30.12,West,263,5.0,11.0,82,0.00,,,0.03,Wunderground v.1.15,2013-03-13 03:33:00,
2013-03-12 22:39:00,22.0,17.6,30.12,West,280,5.0,11.0,83,0.00,,,0.03,Wunderground v.1.15,2013-03-13 03:39:00,
2013-03-12 22:45:00,21.9,17.2,30.12,West,277,5.0,11.0,82,0.00,,,0.03,Wunderground v.1.15,2013-03-13 03:45:00,
2013-03-12 22:51:00,21.9,17.2,30.12,NW,311,5.0,7.0,82,0.00,,,0.03,Wunderground v.1.15,2013-03-13 03:51:00,
2013-03-12 22:57:00,21.8,17.2,30.12,NW,314,5.0,11.0,82,0.00,,,0.03,Wunderground v.1.15,2013-03-13 03:57:00,
2013-03-12 23:01:00,21.7,17.1,30.13,WNW,297,5.0,11.0,82,0.00,,,0.03,Wunderground v.1.15,2013-03-13 04:01:00,
2013-03-12 23:05:00,21.7,17.1,30.13,NW,314,5.0,11.0,82,0.00,,,0.03,Wunderground v.1.15,2013-03-13 04:05:00,
2013-03-12 23:07:00,21.7,17.1,30.13,WNW,289,5.0,11.0,82,0.00,,,0.03,Wunderground v.1.15,2013-03-13 04:07:00,
2013-03-12 23:13:00,21.7,17.1,30.13,NW,304,5.0,11.0,82,0.00,,,0.03,Wunderground v.1.15,2013-03-13 04:13:00,
2013-03-12 23:19:00,21.6,17.0,30.13,WNW,298,5.0,11.0,82,0.00,,,0.03,Wunderground v.1.15,2013-03-13 04:19:00,
2013-03-12 23:25:00,21.6,17.0,30.13,North,356,5.0,11.0,82,0.00,,,0.03,Wunderground v.1.15,2013-03-13 04:25:00,
2013-03-12 23:31:00,21.5,16.6,30.13,NW,314,5.0,11.0,81,0.00,,,0.03,Wunderground v.1.15,2013-03-13 04:31:00,
2013-03-12 23:37:00,21.5,16.6,30.14,NW,309,5.0,11.0,81,0.00,,,0.03,Wunderground v.1.15,2013-03-13 04:37:00,
2013-03-12 23:43:00,21.4,16.8,30.14,NW,314,4.0,11.0,82,0.00,,,0.03,Wunderground v.1.15,2013-03-13 04:43:00,
2013-03-12 23:49:00,21.3,16.7,30.14,WNW,302,4.0,11.0,82,0.00,,,0.03,Wunderground v.1.15,2013-03-13 04:49:00,
2013-03-12 23:55:00,21.3,16.7,30.14,NW,314,5.0,11.0,82,0.00,,,0.03,Wunderground v.1.15,2013-03-13 04:55:00,